Terrace, Canada
Current Conditions -  °F | °C
As of 1:00 PM on Friday 28 Nov 2014 (Local Time) from CYXT Reporting Station
Few Clouds Few Clouds  
Wind Chill:   Ceiling: Unl
Heat Index: 19°   Visibility: 20mi
Dew Point: -8°   Wind: 12mph
Humidity: 30%   Direction: 20°NNE
Pressure: 30.04"   Gusts: NA
Location:  54.52°N, 128.6°W
Report Text: CYXT 282100Z 02010KT 350V060 20SM FEW060 M07/M22 A3004 RMK CU1 CU TR SLP188
Loading
Personal Weather Stations






























Interactive Weather Map New forecast layout! Learn more

10-Day Weather Forecast

Advertisements
Track Severe Weather on mobile